Stephen Scott — WCW8842 — position and weather

sailwx.info

Track history (hours):
 
Tides and Currents Weather Stations Pressure Air Temp Water Temp Dewpoint Dewpoint Depression Visibility Wind Speed Wind Dir Waves Ship Positions

Stephen Scott

Owner: H A REINAUER INC, STATEN ISLAND, NY. More information available from US FCC via Universal Licensing System and Coast Guard Vessel Documentation Center.

Last reported at 2016-May-01 08:15 UTC. Time now 2016-May-01 23:10 UTC.
Position N 40°36' W 074°12'.

Length 30 m; draft 2 m.

Type: Towing. MMSI: 366245490.

Date/timePositionNaut miles runAvg speedWind from/ knotsBaromVisibWave heightAir tempDewpointWater temp
2016-May-01 08:15N 40°36' W 074°12'0 0.0
2016-May-01 07:30N 40°36' W 074°12'0 0.0
2016-May-01 06:25N 40°36' W 074°12'3 1.7
2016-May-01 04:33N 40°39' W 074°11'8 7.9
2016-May-01 03:33N 40°40' W 074°01'5 5.4
2016-May-01 02:33N 40°38' W 074°08'0 0.0
2016-May-01 01:33N 40°38' W 074°08'0 0.0
2016-May-01 00:33N 40°38' W 074°08'0 0.0
2016-Apr-30 23:33N 40°38' W 074°08'0 0.0
2016-Apr-30 22:33N 40°38' W 074°08'0 0.0
2016-Apr-30 21:30N 40°38' W 074°08'0 0.0
2016-Apr-30 20:33N 40°38' W 074°08'0 0.0
2016-Apr-30 19:33N 40°38' W 074°08'2 2.0
2016-Apr-30 18:34N 40°39' W 074°05'3 3.3
2016-Apr-30 17:32N 40°40' W 074°01'0 0.0
2016-Apr-30 16:32N 40°40' W 074°01'0 0.0
2016-Apr-30 15:32N 40°40' W 074°01'0 0.0
2016-Apr-30 14:32N 40°40' W 074°01'0 0.0
2016-Apr-30 13:32N 40°40' W 074°01'0 0.0
2016-Apr-30 12:32N 40°40' W 074°01'0 0.0
2016-Apr-30 11:32N 40°40' W 074°01'0 0.0
2016-Apr-30 10:32N 40°40' W 074°01'1 0.7
2016-Apr-30 09:33N 40°40' W 074°02'0 0.1
2016-Apr-30 08:33N 40°40' W 074°02'0 0.1
2016-Apr-30 07:33N 40°40' W 074°02'0 0.0
2016-Apr-30 06:33N 40°40' W 074°02'0 0.0
2016-Apr-30 05:33N 40°40' W 074°02'0 0.1
2016-Apr-30 04:33N 40°40' W 074°02'0 0.0
2016-Apr-30 03:33N 40°40' W 074°02'0 0.1
2016-Apr-30 02:33N 40°40' W 074°02'0 0.0
2016-Apr-30 01:33N 40°40' W 074°02'1 0.6
2016-Apr-30 00:31N 40°40' W 074°01'0 0.0
2016-Apr-29 23:33N 40°40' W 074°01'0 0.0
2016-Apr-29 22:34N 40°40' W 074°01'0 0.2
2016-Apr-29 21:32N 40°40' W 074°01'0 0.2
2016-Apr-29 20:33N 40°40' W 074°01'6 5.8
2016-Apr-29 19:33N 40°40' W 074°09'2 2.0
2016-Apr-29 18:33N 40°41' W 074°08'3 2.2
2016-Apr-29 17:12N 40°38' W 074°08'0 0.0
2016-Apr-29 16:33N 40°38' W 074°08'2 1.9
2016-Apr-29 15:29N 40°39' W 074°10'1 0.6
2016-Apr-29 14:33N 40°39' W 074°10'1 1.5
2016-Apr-29 13:33N 40°38' W 074°08'0 0.0
2016-Apr-29 12:33N 40°38' W 074°08'0 0.0
2016-Apr-29 11:33N 40°38' W 074°08'0 0.0
2016-Apr-29 10:33N 40°38' W 074°08'0 0.0
2016-Apr-29 09:33N 40°38' W 074°08'0 0.0
2016-Apr-29 08:33N 40°38' W 074°08'4 3.5
2016-Apr-29 07:26N 40°42' W 074°07'0 0.4
2016-Apr-29 06:33N 40°42' W 074°07'6 1.8
2016-Apr-29 03:11N 40°37' W 074°12'4 2.1
2016-Apr-29 01:28N 40°38' W 074°08'1 0.5
2016-Apr-28 23:28N 40°39' W 074°07'0 0.3
2016-Apr-28 22:29N 40°39' W 074°07'2 0.3
2016-Apr-28 16:32N 40°39' W 074°09'3 1.3
2016-Apr-28 14:14N 40°37' W 074°12'3 4.6
2016-Apr-28 13:33N 40°39' W 074°09'6 6.0
2016-Apr-28 12:31N 40°40' W 074°01'5 4.4
2016-Apr-28 11:18N 40°38' W 074°08'2 2.7
2016-Apr-28 10:32N 40°39' W 074°05'3 3.4
2016-Apr-28 09:33N 40°40' W 074°01'0 0.2
2016-Apr-28 08:33N 40°40' W 074°01'0 0.4
2016-Apr-28 07:34N 40°40' W 074°01'7 6.2
2016-Apr-28 06:30N 40°46' W 073°57'6 6.6
2016-Apr-28 05:33N 40°41' W 074°01'2 2.1
2016-Apr-28 04:33N 40°39' W 074°03'4 4.0
2016-Apr-28 03:33N 40°42' W 074°07'0 0.1
2016-Apr-28 01:33N 40°42' W 074°07'5 0.2
2016-Apr-26 17:29N 40°38' W 074°12'6 5.4
2016-Apr-26 16:26N 40°42' W 074°07'5 5.9
2016-Apr-26 15:33N 40°38' W 074°12'4 0.2
2016-Apr-25 21:17N 40°35' W 074°13'5 6.3
2016-Apr-25 20:33N 40°39' W 074°09'7 6.3
2016-Apr-25 19:31N 40°40' W 074°01'6 5.2
2016-Apr-25 18:18N 40°39' W 074°09'3 1.6
2016-Apr-25 16:19N 40°37' W 074°12'1 0.1
2016-Apr-25 08:03N 40°36' W 074°12'0 0.1
2016-Apr-25 07:32N 40°36' W 074°12'0 0.0
2016-Apr-25 06:13N 40°36' W 074°12'0 0.0
2016-Apr-25 01:16N 40°36' W 074°12'0 0.0
2016-Apr-24 19:19N 40°36' W 074°12'0 0.0
2016-Apr-24 18:25N 40°36' W 074°12'0 0.0
2016-Apr-24 17:25N 40°36' W 074°12'4 0.4
2016-Apr-24 09:20N 40°39' W 074°10'2 0.9
2016-Apr-24 07:30N 40°38' W 074°08'0 0.0
2016-Apr-24 06:33N 40°38' W 074°08'0 0.0
2016-Apr-24 05:32N 40°38' W 074°08'0 0.0
2016-Apr-24 04:29N 40°38' W 074°08'0 0.0
2016-Apr-24 03:32N 40°38' W 074°08'0 0.0
2016-Apr-24 02:25N 40°38' W 074°08'2 2.1
2016-Apr-24 01:33N 40°39' W 074°05'0 0.0
2016-Apr-24 00:33N 40°39' W 074°05'2 1.8
2016-Apr-23 23:31N 40°38' W 074°08'0 0.0
2016-Apr-23 22:31N 40°38' W 074°08'0 0.0
2016-Apr-23 21:28N 40°38' W 074°08'0 0.1
2016-Apr-23 20:33N 40°38' W 074°08'0 0.0
2016-Apr-23 19:29N 40°38' W 074°08'0 0.0
2016-Apr-23 18:32N 40°38' W 074°08'0 0.0
2016-Apr-23 17:32N 40°38' W 074°08'0 0.0
2016-Apr-23 16:32N 40°38' W 074°08'0 0.0
2016-Apr-23 15:32N 40°38' W 074°08'0 0.0
2016-Apr-23 14:32N 40°38' W 074°08'0 0.0
2016-Apr-23 13:32N 40°38' W 074°08'0 0.0
2016-Apr-23 12:31N 40°38' W 074°08'0 0.0
2016-Apr-23 11:31N 40°38' W 074°08'0 0.0
2016-Apr-23 10:31N 40°38' W 074°08'0 0.0
2016-Apr-23 09:31N 40°38' W 074°08'1 0.8
2016-Apr-23 08:33N 40°39' W 074°07'1 0.7
2016-Apr-23 07:29N 40°38' W 074°08'0 0.0
2016-Apr-23 06:32N 40°38' W 074°08'0 0.0
2016-Apr-23 05:33N 40°38' W 074°08'0 0.0
2016-Apr-23 04:33N 40°38' W 074°08'0 0.0
2016-Apr-23 03:33N 40°38' W 074°08'0 0.0
2016-Apr-23 02:33N 40°38' W 074°08'1 1.0
2016-Apr-23 01:28N 40°39' W 074°06'1 1.2
2016-Apr-23 00:31N 40°38' W 074°08'0 0.0
2016-Apr-22 23:31N 40°38' W 074°08'0 0.0
2016-Apr-22 22:31N 40°38' W 074°08'0 0.0
2016-Apr-22 21:28N 40°38' W 074°08'1 1.0
2016-Apr-22 20:31N 40°39' W 074°07'1 1.4
2016-Apr-22 19:32N 40°39' W 074°05'0 0.1
2016-Apr-22 18:34N 40°39' W 074°05'2 1.5
2016-Apr-22 17:31N 40°39' W 074°03'0 0.1
2016-Apr-22 16:31N 40°39' W 074°03'1 0.9
2016-Apr-22 15:33N 40°40' W 074°02'0 0.0
2016-Apr-22 14:33N 40°40' W 074°02'0 0.0
2016-Apr-22 13:33N 40°40' W 074°02'0 0.0
2016-Apr-22 12:33N 40°40' W 074°02'0 0.1
2016-Apr-22 11:33N 40°40' W 074°02'1 1.0
2016-Apr-22 10:32N 40°40' W 074°01'0 0.1
2016-Apr-22 09:31N 40°40' W 074°01'4 3.7
2016-Apr-22 08:34N 40°39' W 074°05'4 3.6
2016-Apr-22 07:32N 40°42' W 074°07'4 3.7
2016-Apr-22 06:28N 40°38' W 074°08'0 0.0
2016-Apr-22 05:28N 40°38' W 074°08'0 0.0
2016-Apr-22 04:28N 40°38' W 074°08'5 5.7
2016-Apr-22 03:32N 40°40' W 074°01'0 0.1
2016-Apr-22 02:33N 40°40' W 074°01'1 1.0
2016-Apr-22 01:33N 40°40' W 074°02'0 0.0
2016-Apr-22 00:33N 40°40' W 074°02'0 0.0
2016-Apr-21 23:33N 40°40' W 074°02'0 0.0
2016-Apr-21 22:33N 40°40' W 074°02'1 1.0
2016-Apr-21 21:32N 40°40' W 074°01'5 4.7
2016-Apr-21 20:32N 40°39' W 074°07'1 0.6
2016-Apr-21 19:27N 40°38' W 074°08'0 0.0
2016-Apr-21 16:24N 40°38' W 074°08'0 0.0
2016-Apr-21 15:24N 40°38' W 074°08'3 3.1
2016-Apr-21 14:33N 40°41' W 074°08'0 0.3
2016-Apr-21 13:34N 40°41' W 074°08'2 2.0
2016-Apr-21 12:32N 40°39' W 074°07'1 1.0
2016-Apr-21 11:33N 40°38' W 074°08'0 0.0
2016-Apr-21 10:33N 40°38' W 074°08'0 0.0
2016-Apr-21 09:33N 40°38' W 074°08'0 0.0
2016-Apr-21 08:33N 40°38' W 074°08'  
Track history (hours):
 
Tides and Currents Weather Stations Pressure Air Temp Water Temp Dewpoint Dewpoint Depression Visibility Wind Speed Wind Dir Waves Ship Positions

Stephen Scott

Owner: H A REINAUER INC, STATEN ISLAND, NY. More information available from US FCC via Universal Licensing System and Coast Guard Vessel Documentation Center.

Last reported at 2016-May-01 08:15 UTC. Time now 2016-May-01 23:10 UTC.
Position N 40°36' W 074°12'.

Length 30 m; draft 2 m.

Type: Towing. MMSI: 366245490.

Date/timePositionNaut miles runAvg speedWind from/ knotsBaromVisibWave heightAir tempDewpointWater temp
2016-May-01 08:15N 40°36' W 074°12'0 0.0
2016-May-01 07:30N 40°36' W 074°12'0 0.0
2016-May-01 06:25N 40°36' W 074°12'3 1.7
2016-May-01 04:33N 40°39' W 074°11'8 7.9
2016-May-01 03:33N 40°40' W 074°01'5 5.4
2016-May-01 02:33N 40°38' W 074°08'0 0.0
2016-May-01 01:33N 40°38' W 074°08'0 0.0
2016-May-01 00:33N 40°38' W 074°08'0 0.0
2016-Apr-30 23:33N 40°38' W 074°08'0 0.0
2016-Apr-30 22:33N 40°38' W 074°08'0 0.0
2016-Apr-30 21:30N 40°38' W 074°08'0 0.0
2016-Apr-30 20:33N 40°38' W 074°08'0 0.0
2016-Apr-30 19:33N 40°38' W 074°08'2 2.0
2016-Apr-30 18:34N 40°39' W 074°05'3 3.3
2016-Apr-30 17:32N 40°40' W 074°01'0 0.0
2016-Apr-30 16:32N 40°40' W 074°01'0 0.0
2016-Apr-30 15:32N 40°40' W 074°01'0 0.0
2016-Apr-30 14:32N 40°40' W 074°01'0 0.0
2016-Apr-30 13:32N 40°40' W 074°01'0 0.0
2016-Apr-30 12:32N 40°40' W 074°01'0 0.0
2016-Apr-30 11:32N 40°40' W 074°01'0 0.0
2016-Apr-30 10:32N 40°40' W 074°01'1 0.7
2016-Apr-30 09:33N 40°40' W 074°02'0 0.1
2016-Apr-30 08:33N 40°40' W 074°02'0 0.1
2016-Apr-30 07:33N 40°40' W 074°02'0 0.0
2016-Apr-30 06:33N 40°40' W 074°02'0 0.0
2016-Apr-30 05:33N 40°40' W 074°02'0 0.1
2016-Apr-30 04:33N 40°40' W 074°02'0 0.0
2016-Apr-30 03:33N 40°40' W 074°02'0 0.1
2016-Apr-30 02:33N 40°40' W 074°02'0 0.0
2016-Apr-30 01:33N 40°40' W 074°02'1 0.6
2016-Apr-30 00:31N 40°40' W 074°01'0 0.0
2016-Apr-29 23:33N 40°40' W 074°01'0 0.0
2016-Apr-29 22:34N 40°40' W 074°01'0 0.2
2016-Apr-29 21:32N 40°40' W 074°01'0 0.2
2016-Apr-29 20:33N 40°40' W 074°01'6 5.8
2016-Apr-29 19:33N 40°40' W 074°09'2 2.0
2016-Apr-29 18:33N 40°41' W 074°08'3 2.2
2016-Apr-29 17:12N 40°38' W 074°08'0 0.0
2016-Apr-29 16:33N 40°38' W 074°08'2 1.9
2016-Apr-29 15:29N 40°39' W 074°10'1 0.6
2016-Apr-29 14:33N 40°39' W 074°10'1 1.5
2016-Apr-29 13:33N 40°38' W 074°08'0 0.0
2016-Apr-29 12:33N 40°38' W 074°08'0 0.0
2016-Apr-29 11:33N 40°38' W 074°08'0 0.0
2016-Apr-29 10:33N 40°38' W 074°08'0 0.0
2016-Apr-29 09:33N 40°38' W 074°08'0 0.0
2016-Apr-29 08:33N 40°38' W 074°08'4 3.5
2016-Apr-29 07:26N 40°42' W 074°07'0 0.4
2016-Apr-29 06:33N 40°42' W 074°07'6 1.8
2016-Apr-29 03:11N 40°37' W 074°12'4 2.1
2016-Apr-29 01:28N 40°38' W 074°08'1 0.5
2016-Apr-28 23:28N 40°39' W 074°07'0 0.3
2016-Apr-28 22:29N 40°39' W 074°07'2 0.3
2016-Apr-28 16:32N 40°39' W 074°09'3 1.3
2016-Apr-28 14:14N 40°37' W 074°12'3 4.6
2016-Apr-28 13:33N 40°39' W 074°09'6 6.0
2016-Apr-28 12:31N 40°40' W 074°01'5 4.4
2016-Apr-28 11:18N 40°38' W 074°08'2 2.7
2016-Apr-28 10:32N 40°39' W 074°05'3 3.4
2016-Apr-28 09:33N 40°40' W 074°01'0 0.2
2016-Apr-28 08:33N 40°40' W 074°01'0 0.4
2016-Apr-28 07:34N 40°40' W 074°01'7 6.2
2016-Apr-28 06:30N 40°46' W 073°57'6 6.6
2016-Apr-28 05:33N 40°41' W 074°01'2 2.1
2016-Apr-28 04:33N 40°39' W 074°03'4 4.0
2016-Apr-28 03:33N 40°42' W 074°07'0 0.1
2016-Apr-28 01:33N 40°42' W 074°07'5 0.2
2016-Apr-26 17:29N 40°38' W 074°12'6 5.4
2016-Apr-26 16:26N 40°42' W 074°07'5 5.9
2016-Apr-26 15:33N 40°38' W 074°12'4 0.2
2016-Apr-25 21:17N 40°35' W 074°13'5 6.3
2016-Apr-25 20:33N 40°39' W 074°09'7 6.3
2016-Apr-25 19:31N 40°40' W 074°01'6 5.2
2016-Apr-25 18:18N 40°39' W 074°09'3 1.6
2016-Apr-25 16:19N 40°37' W 074°12'1 0.1
2016-Apr-25 08:03N 40°36' W 074°12'0 0.1
2016-Apr-25 07:32N 40°36' W 074°12'0 0.0
2016-Apr-25 06:13N 40°36' W 074°12'0 0.0
2016-Apr-25 01:16N 40°36' W 074°12'0 0.0
2016-Apr-24 19:19N 40°36' W 074°12'0 0.0
2016-Apr-24 18:25N 40°36' W 074°12'0 0.0
2016-Apr-24 17:25N 40°36' W 074°12'4 0.4
2016-Apr-24 09:20N 40°39' W 074°10'2 0.9
2016-Apr-24 07:30N 40°38' W 074°08'0 0.0
2016-Apr-24 06:33N 40°38' W 074°08'0 0.0
2016-Apr-24 05:32N 40°38' W 074°08'0 0.0
2016-Apr-24 04:29N 40°38' W 074°08'0 0.0
2016-Apr-24 03:32N 40°38' W 074°08'0 0.0
2016-Apr-24 02:25N 40°38' W 074°08'2 2.1
2016-Apr-24 01:33N 40°39' W 074°05'0 0.0
2016-Apr-24 00:33N 40°39' W 074°05'2 1.8
2016-Apr-23 23:31N 40°38' W 074°08'0 0.0
2016-Apr-23 22:31N 40°38' W 074°08'0 0.0
2016-Apr-23 21:28N 40°38' W 074°08'0 0.1
2016-Apr-23 20:33N 40°38' W 074°08'0 0.0
2016-Apr-23 19:29N 40°38' W 074°08'0 0.0
2016-Apr-23 18:32N 40°38' W 074°08'0 0.0
2016-Apr-23 17:32N 40°38' W 074°08'0 0.0
2016-Apr-23 16:32N 40°38' W 074°08'0 0.0
2016-Apr-23 15:32N 40°38' W 074°08'0 0.0
2016-Apr-23 14:32N 40°38' W 074°08'0 0.0
2016-Apr-23 13:32N 40°38' W 074°08'0 0.0
2016-Apr-23 12:31N 40°38' W 074°08'0 0.0
2016-Apr-23 11:31N 40°38' W 074°08'0 0.0
2016-Apr-23 10:31N 40°38' W 074°08'0 0.0
2016-Apr-23 09:31N 40°38' W 074°08'1 0.8
2016-Apr-23 08:33N 40°39' W 074°07'1 0.7
2016-Apr-23 07:29N 40°38' W 074°08'0 0.0
2016-Apr-23 06:32N 40°38' W 074°08'0 0.0
2016-Apr-23 05:33N 40°38' W 074°08'0 0.0
2016-Apr-23 04:33N 40°38' W 074°08'0 0.0
2016-Apr-23 03:33N 40°38' W 074°08'0 0.0
2016-Apr-23 02:33N 40°38' W 074°08'1 1.0
2016-Apr-23 01:28N 40°39' W 074°06'1 1.2
2016-Apr-23 00:31N 40°38' W 074°08'0 0.0
2016-Apr-22 23:31N 40°38' W 074°08'0 0.0
2016-Apr-22 22:31N 40°38' W 074°08'0 0.0
2016-Apr-22 21:28N 40°38' W 074°08'1 1.0
2016-Apr-22 20:31N 40°39' W 074°07'1 1.4
2016-Apr-22 19:32N 40°39' W 074°05'0 0.1
2016-Apr-22 18:34N 40°39' W 074°05'2 1.5
2016-Apr-22 17:31N 40°39' W 074°03'0 0.1
2016-Apr-22 16:31N 40°39' W 074°03'1 0.9
2016-Apr-22 15:33N 40°40' W 074°02'0 0.0
2016-Apr-22 14:33N 40°40' W 074°02'0 0.0
2016-Apr-22 13:33N 40°40' W 074°02'0 0.0
2016-Apr-22 12:33N 40°40' W 074°02'0 0.1
2016-Apr-22 11:33N 40°40' W 074°02'1 1.0
2016-Apr-22 10:32N 40°40' W 074°01'0 0.1
2016-Apr-22 09:31N 40°40' W 074°01'4 3.7
2016-Apr-22 08:34N 40°39' W 074°05'4 3.6
2016-Apr-22 07:32N 40°42' W 074°07'4 3.7
2016-Apr-22 06:28N 40°38' W 074°08'0 0.0
2016-Apr-22 05:28N 40°38' W 074°08'0 0.0
2016-Apr-22 04:28N 40°38' W 074°08'5 5.7
2016-Apr-22 03:32N 40°40' W 074°01'0 0.1
2016-Apr-22 02:33N 40°40' W 074°01'1 1.0
2016-Apr-22 01:33N 40°40' W 074°02'0 0.0
2016-Apr-22 00:33N 40°40' W 074°02'0 0.0
2016-Apr-21 23:33N 40°40' W 074°02'0 0.0
2016-Apr-21 22:33N 40°40' W 074°02'1 1.0
2016-Apr-21 21:32N 40°40' W 074°01'5 4.7
2016-Apr-21 20:32N 40°39' W 074°07'1 0.6
2016-Apr-21 19:27N 40°38' W 074°08'0 0.0
2016-Apr-21 16:24N 40°38' W 074°08'0 0.0
2016-Apr-21 15:24N 40°38' W 074°08'3 3.1
2016-Apr-21 14:33N 40°41' W 074°08'0 0.3
2016-Apr-21 13:34N 40°41' W 074°08'2 2.0
2016-Apr-21 12:32N 40°39' W 074°07'1 1.0
2016-Apr-21 11:33N 40°38' W 074°08'0 0.0
2016-Apr-21 10:33N 40°38' W 074°08'0 0.0
2016-Apr-21 09:33N 40°38' W 074°08'0 0.0
2016-Apr-21 08:33N 40°38' W 074°08'  

Dump ship's entire track history